sensor_id;sensor_type;location;lat;lon;timestamp;P1;durP1;ratioP1;P2;durP2;ratioP2
27985;SDS011;15453;53.692;10.168;2023-03-14T00:00:17;8.95;;;2.83;;
27985;SDS011;15453;53.692;10.168;2023-03-14T00:02:42;8.57;;;2.95;;
27985;SDS011;15453;53.692;10.168;2023-03-14T00:05:08;10.10;;;2.80;;
27985;SDS011;15453;53.692;10.168;2023-03-14T00:07:35;11.43;;;3.00;;
27985;SDS011;15453;53.692;10.168;2023-03-14T00:10:11;12.60;;;2.70;;
27985;SDS011;15453;53.692;10.168;2023-03-14T00:12:39;6.15;;;2.70;;
27985;SDS011;15453;53.692;10.168;2023-03-14T00:15:06;12.63;;;2.88;;
27985;SDS011;15453;53.692;10.168;2023-03-14T00:17:32;8.93;;;2.30;;
27985;SDS011;15453;53.692;10.168;2023-03-14T00:19:57;10.43;;;2.80;;
27985;SDS011;15453;53.692;10.168;2023-03-14T00:22:29;14.23;;;3.55;;
27985;SDS011;15453;53.692;10.168;2023-03-14T00:24:54;5.78;;;2.10;;
27985;SDS011;15453;53.692;10.168;2023-03-14T00:27:20;6.05;;;2.28;;
27985;SDS011;15453;53.692;10.168;2023-03-14T00:29:45;10.35;;;2.97;;
27985;SDS011;15453;53.692;10.168;2023-03-14T00:32:10;7.15;;;2.50;;
27985;SDS011;15453;53.692;10.168;2023-03-14T00:34:35;7.03;;;2.40;;
27985;SDS011;15453;53.692;10.168;2023-03-14T00:37:01;7.05;;;2.45;;
27985;SDS011;15453;53.692;10.168;2023-03-14T00:39:26;6.55;;;2.17;;
27985;SDS011;15453;53.692;10.168;2023-03-14T00:41:51;7.32;;;2.40;;
27985;SDS011;15453;53.692;10.168;2023-03-14T00:44:16;8.75;;;3.00;;
27985;SDS011;15453;53.692;10.168;2023-03-14T00:46:42;9.75;;;2.70;;
27985;SDS011;15453;53.692;10.168;2023-03-14T00:49:07;8.00;;;2.55;;
27985;SDS011;15453;53.692;10.168;2023-03-14T00:51:32;8.07;;;2.53;;
27985;SDS011;15453;53.692;10.168;2023-03-14T00:53:57;5.70;;;2.13;;
27985;SDS011;15453;53.692;10.168;2023-03-14T00:56:24;9.40;;;2.65;;
27985;SDS011;15453;53.692;10.168;2023-03-14T00:58:52;7.35;;;2.20;;
27985;SDS011;15453;53.692;10.168;2023-03-14T01:01:18;10.23;;;2.63;;
27985;SDS011;15453;53.692;10.168;2023-03-14T01:03:44;12.30;;;3.53;;
27985;SDS011;15453;53.692;10.168;2023-03-14T01:06:11;8.40;;;2.20;;
27985;SDS011;15453;53.692;10.168;2023-03-14T01:08:38;12.23;;;2.70;;
27985;SDS011;15453;53.692;10.168;2023-03-14T01:11:07;8.00;;;2.70;;
27985;SDS011;15453;53.692;10.168;2023-03-14T01:13:34;10.23;;;2.50;;
27985;SDS011;15453;53.692;10.168;2023-03-14T01:16:03;8.82;;;2.70;;
27985;SDS011;15453;53.692;10.168;2023-03-14T01:18:30;9.32;;;2.65;;
27985;SDS011;15453;53.692;10.168;2023-03-14T01:20:56;10.38;;;2.88;;
27985;SDS011;15453;53.692;10.168;2023-03-14T01:23:21;13.35;;;2.83;;
27985;SDS011;15453;53.692;10.168;2023-03-14T01:25:46;11.23;;;2.42;;
27985;SDS011;15453;53.692;10.168;2023-03-14T01:28:11;12.27;;;2.97;;
27985;SDS011;15453;53.692;10.168;2023-03-14T01:30:37;9.95;;;2.63;;
27985;SDS011;15453;53.692;10.168;2023-03-14T01:33:02;8.90;;;2.53;;
27985;SDS011;15453;53.692;10.168;2023-03-14T01:35:27;16.17;;;2.75;;
27985;SDS011;15453;53.692;10.168;2023-03-14T01:37:52;11.73;;;2.65;;
27985;SDS011;15453;53.692;10.168;2023-03-14T01:40:17;11.82;;;2.88;;
27985;SDS011;15453;53.692;10.168;2023-03-14T01:42:46;11.50;;;3.08;;
27985;SDS011;15453;53.692;10.168;2023-03-14T01:48:21;9.15;;;2.78;;
27985;SDS011;15453;53.692;10.168;2023-03-14T01:50:47;11.23;;;3.10;;
27985;SDS011;15453;53.692;10.168;2023-03-14T01:53:12;10.82;;;3.00;;
27985;SDS011;15453;53.692;10.168;2023-03-14T01:55:38;11.73;;;2.67;;
27985;SDS011;15453;53.692;10.168;2023-03-14T01:58:03;9.60;;;3.33;;
27985;SDS011;15453;53.692;10.168;2023-03-14T02:00:30;12.85;;;2.70;;
27985;SDS011;15453;53.692;10.168;2023-03-14T02:02:57;13.27;;;3.22;;
27985;SDS011;15453;53.692;10.168;2023-03-14T02:05:25;6.88;;;2.60;;
27985;SDS011;15453;53.692;10.168;2023-03-14T02:07:54;9.23;;;2.80;;
27985;SDS011;15453;53.692;10.168;2023-03-14T02:10:22;7.78;;;2.20;;
27985;SDS011;15453;53.692;10.168;2023-03-14T02:12:52;7.53;;;2.50;;
27985;SDS011;15453;53.692;10.168;2023-03-14T02:15:20;10.30;;;3.30;;
27985;SDS011;15453;53.692;10.168;2023-03-14T02:17:45;6.45;;;2.67;;
27985;SDS011;15453;53.692;10.168;2023-03-14T02:23:01;7.15;;;2.65;;
27985;SDS011;15453;53.692;10.168;2023-03-14T02:28:05;8.32;;;2.30;;
27985;SDS011;15453;53.692;10.168;2023-03-14T02:30:31;8.35;;;2.80;;
27985;SDS011;15453;53.692;10.168;2023-03-14T02:32:58;11.52;;;2.92;;
27985;SDS011;15453;53.692;10.168;2023-03-14T02:35:27;9.00;;;2.85;;
27985;SDS011;15453;53.692;10.168;2023-03-14T02:37:55;6.55;;;2.45;;
27985;SDS011;15453;53.692;10.168;2023-03-14T02:42:49;4.95;;;2.35;;
27985;SDS011;15453;53.692;10.168;2023-03-14T02:47:42;5.90;;;2.63;;
27985;SDS011;15453;53.692;10.168;2023-03-14T02:50:12;8.15;;;2.55;;
27985;SDS011;15453;53.692;10.168;2023-03-14T02:52:40;6.90;;;2.55;;
27985;SDS011;15453;53.692;10.168;2023-03-14T02:55:05;8.10;;;2.58;;
27985;SDS011;15453;53.692;10.168;2023-03-14T02:57:31;9.50;;;2.60;;
27985;SDS011;15453;53.692;10.168;2023-03-14T02:59:59;8.93;;;2.38;;
27985;SDS011;15453;53.692;10.168;2023-03-14T03:02:26;8.43;;;2.55;;
27985;SDS011;15453;53.692;10.168;2023-03-14T03:04:52;5.65;;;2.70;;
27985;SDS011;15453;53.692;10.168;2023-03-14T03:07:18;9.43;;;3.40;;
27985;SDS011;15453;53.692;10.168;2023-03-14T03:09:44;7.50;;;2.35;;
27985;SDS011;15453;53.692;10.168;2023-03-14T03:12:09;6.82;;;2.58;;
27985;SDS011;15453;53.692;10.168;2023-03-14T03:14:34;7.30;;;2.85;;
27985;SDS011;15453;53.692;10.168;2023-03-14T03:17:00;6.18;;;3.13;;
27985;SDS011;15453;53.692;10.168;2023-03-14T03:19:25;6.90;;;2.90;;
27985;SDS011;15453;53.692;10.168;2023-03-14T03:21:50;10.15;;;3.20;;
27985;SDS011;15453;53.692;10.168;2023-03-14T03:24:16;12.05;;;3.22;;
27985;SDS011;15453;53.692;10.168;2023-03-14T03:26:41;9.00;;;2.47;;
27985;SDS011;15453;53.692;10.168;2023-03-14T03:29:06;12.52;;;2.63;;
27985;SDS011;15453;53.692;10.168;2023-03-14T03:31:32;9.20;;;3.10;;
27985;SDS011;15453;53.692;10.168;2023-03-14T03:33:57;9.15;;;3.17;;
27985;SDS011;15453;53.692;10.168;2023-03-14T03:36:23;9.05;;;3.25;;
27985;SDS011;15453;53.692;10.168;2023-03-14T03:38:50;10.88;;;3.22;;
27985;SDS011;15453;53.692;10.168;2023-03-14T03:41:15;8.55;;;3.50;;
27985;SDS011;15453;53.692;10.168;2023-03-14T03:43:40;9.98;;;2.80;;
27985;SDS011;15453;53.692;10.168;2023-03-14T03:46:06;8.15;;;3.05;;
27985;SDS011;15453;53.692;10.168;2023-03-14T03:48:32;8.27;;;2.70;;
27985;SDS011;15453;53.692;10.168;2023-03-14T03:50:58;5.97;;;2.72;;
27985;SDS011;15453;53.692;10.168;2023-03-14T03:53:23;7.93;;;3.60;;
27985;SDS011;15453;53.692;10.168;2023-03-14T03:55:48;7.70;;;3.20;;
27985;SDS011;15453;53.692;10.168;2023-03-14T03:58:13;9.40;;;3.17;;
27985;SDS011;15453;53.692;10.168;2023-03-14T04:00:39;9.32;;;3.78;;
27985;SDS011;15453;53.692;10.168;2023-03-14T04:03:04;9.07;;;3.00;;
27985;SDS011;15453;53.692;10.168;2023-03-14T04:05:29;9.30;;;2.85;;
27985;SDS011;15453;53.692;10.168;2023-03-14T04:07:55;8.95;;;2.90;;
27985;SDS011;15453;53.692;10.168;2023-03-14T04:10:20;10.27;;;2.95;;
27985;SDS011;15453;53.692;10.168;2023-03-14T04:12:45;6.18;;;2.80;;
27985;SDS011;15453;53.692;10.168;2023-03-14T04:15:11;12.40;;;3.00;;
27985;SDS011;15453;53.692;10.168;2023-03-14T04:17:36;7.53;;;2.83;;
27985;SDS011;15453;53.692;10.168;2023-03-14T04:20:01;10.23;;;3.10;;
27985;SDS011;15453;53.692;10.168;2023-03-14T04:22:28;9.60;;;3.17;;
27985;SDS011;15453;53.692;10.168;2023-03-14T04:24:53;6.25;;;2.30;;
27985;SDS011;15453;53.692;10.168;2023-03-14T04:27:18;6.03;;;2.50;;
27985;SDS011;15453;53.692;10.168;2023-03-14T04:29:43;6.13;;;2.92;;
27985;SDS011;15453;53.692;10.168;2023-03-14T04:32:09;7.25;;;2.90;;
27985;SDS011;15453;53.692;10.168;2023-03-14T04:34:34;6.00;;;2.40;;
27985;SDS011;15453;53.692;10.168;2023-03-14T04:36:59;9.50;;;3.10;;
27985;SDS011;15453;53.692;10.168;2023-03-14T04:39:25;8.75;;;3.00;;
27985;SDS011;15453;53.692;10.168;2023-03-14T04:41:50;6.13;;;2.35;;
27985;SDS011;15453;53.692;10.168;2023-03-14T04:44:15;7.35;;;2.63;;
27985;SDS011;15453;53.692;10.168;2023-03-14T04:46:40;9.73;;;2.78;;
27985;SDS011;15453;53.692;10.168;2023-03-14T04:49:06;8.60;;;2.60;;
27985;SDS011;15453;53.692;10.168;2023-03-14T04:51:31;9.68;;;3.00;;
27985;SDS011;15453;53.692;10.168;2023-03-14T04:53:56;9.40;;;3.30;;
27985;SDS011;15453;53.692;10.168;2023-03-14T04:56:21;8.48;;;2.47;;
27985;SDS011;15453;53.692;10.168;2023-03-14T04:58:47;8.18;;;3.03;;
27985;SDS011;15453;53.692;10.168;2023-03-14T05:01:12;9.32;;;2.72;;
27985;SDS011;15453;53.692;10.168;2023-03-14T05:03:37;8.10;;;2.40;;
27985;SDS011;15453;53.692;10.168;2023-03-14T05:06:03;13.48;;;1.50;;
27985;SDS011;15453;53.692;10.168;2023-03-14T05:08:29;3.08;;;1.08;;
27985;SDS011;15453;53.692;10.168;2023-03-14T05:10:54;2.65;;;0.90;;
27985;SDS011;15453;53.692;10.168;2023-03-14T05:13:21;2.00;;;0.80;;
27985;SDS011;15453;53.692;10.168;2023-03-14T05:15:46;3.15;;;0.88;;
27985;SDS011;15453;53.692;10.168;2023-03-14T05:18:12;3.53;;;0.90;;
27985;SDS011;15453;53.692;10.168;2023-03-14T05:20:37;5.10;;;1.13;;
27985;SDS011;15453;53.692;10.168;2023-03-14T05:23:02;2.10;;;0.90;;
27985;SDS011;15453;53.692;10.168;2023-03-14T05:25:27;3.95;;;1.08;;
27985;SDS011;15453;53.692;10.168;2023-03-14T05:27:53;3.53;;;0.80;;
27985;SDS011;15453;53.692;10.168;2023-03-14T05:30:19;1.73;;;0.70;;
27985;SDS011;15453;53.692;10.168;2023-03-14T05:32:45;1.95;;;0.73;;
27985;SDS011;15453;53.692;10.168;2023-03-14T05:35:10;3.17;;;1.15;;
27985;SDS011;15453;53.692;10.168;2023-03-14T05:37:35;2.00;;;1.00;;
27985;SDS011;15453;53.692;10.168;2023-03-14T05:40:00;2.33;;;0.90;;
27985;SDS011;15453;53.692;10.168;2023-03-14T05:42:26;2.83;;;1.05;;
27985;SDS011;15453;53.692;10.168;2023-03-14T05:44:51;5.95;;;1.05;;
27985;SDS011;15453;53.692;10.168;2023-03-14T05:47:16;3.92;;;1.10;;
27985;SDS011;15453;53.692;10.168;2023-03-14T05:49:41;3.80;;;1.20;;
27985;SDS011;15453;53.692;10.168;2023-03-14T05:52:07;2.88;;;1.00;;
27985;SDS011;15453;53.692;10.168;2023-03-14T05:54:32;3.00;;;1.05;;
27985;SDS011;15453;53.692;10.168;2023-03-14T05:56:57;2.53;;;1.17;;
27985;SDS011;15453;53.692;10.168;2023-03-14T05:59:23;4.80;;;1.58;;
27985;SDS011;15453;53.692;10.168;2023-03-14T06:01:48;3.63;;;1.20;;
27985;SDS011;15453;53.692;10.168;2023-03-14T06:04:13;3.85;;;1.63;;
27985;SDS011;15453;53.692;10.168;2023-03-14T06:06:38;3.33;;;1.67;;
27985;SDS011;15453;53.692;10.168;2023-03-14T06:09:04;4.35;;;1.48;;
27985;SDS011;15453;53.692;10.168;2023-03-14T06:11:29;6.43;;;1.80;;
27985;SDS011;15453;53.692;10.168;2023-03-14T06:13:54;4.32;;;1.63;;
27985;SDS011;15453;53.692;10.168;2023-03-14T06:16:19;7.70;;;1.77;;
27985;SDS011;15453;53.692;10.168;2023-03-14T06:18:45;4.38;;;1.70;;
27985;SDS011;15453;53.692;10.168;2023-03-14T06:21:11;4.43;;;1.70;;
27985;SDS011;15453;53.692;10.168;2023-03-14T06:23:37;6.18;;;2.42;;
27985;SDS011;15453;53.692;10.168;2023-03-14T06:26:02;4.20;;;2.00;;
27985;SDS011;15453;53.692;10.168;2023-03-14T06:28:28;5.70;;;2.78;;
27985;SDS011;15453;53.692;10.168;2023-03-14T06:30:53;6.80;;;2.65;;
27985;SDS011;15453;53.692;10.168;2023-03-14T06:33:18;6.43;;;2.90;;
27985;SDS011;15453;53.692;10.168;2023-03-14T06:35:43;4.90;;;2.80;;
27985;SDS011;15453;53.692;10.168;2023-03-14T06:38:09;7.82;;;3.40;;
27985;SDS011;15453;53.692;10.168;2023-03-14T06:40:34;10.88;;;3.55;;
27985;SDS011;15453;53.692;10.168;2023-03-14T06:42:59;7.25;;;3.10;;
27985;SDS011;15453;53.692;10.168;2023-03-14T06:45:24;7.30;;;3.45;;
27985;SDS011;15453;53.692;10.168;2023-03-14T06:47:50;7.35;;;3.30;;
27985;SDS011;15453;53.692;10.168;2023-03-14T06:50:15;9.30;;;3.33;;
27985;SDS011;15453;53.692;10.168;2023-03-14T06:52:40;9.27;;;3.25;;
27985;SDS011;15453;53.692;10.168;2023-03-14T06:55:10;7.32;;;3.25;;
27985;SDS011;15453;53.692;10.168;2023-03-14T06:57:36;11.15;;;4.15;;
27985;SDS011;15453;53.692;10.168;2023-03-14T07:00:02;5.47;;;3.10;;
27985;SDS011;15453;53.692;10.168;2023-03-14T07:02:28;9.23;;;3.40;;
27985;SDS011;15453;53.692;10.168;2023-03-14T07:04:53;7.75;;;3.35;;
27985;SDS011;15453;53.692;10.168;2023-03-14T07:07:19;9.73;;;3.40;;
27985;SDS011;15453;53.692;10.168;2023-03-14T07:09:44;7.63;;;3.53;;
27985;SDS011;15453;53.692;10.168;2023-03-14T07:12:09;9.95;;;4.07;;
27985;SDS011;15453;53.692;10.168;2023-03-14T07:14:34;8.23;;;3.65;;
27985;SDS011;15453;53.692;10.168;2023-03-14T07:17:00;5.55;;;3.30;;
27985;SDS011;15453;53.692;10.168;2023-03-14T07:19:25;11.60;;;4.35;;
27985;SDS011;15453;53.692;10.168;2023-03-14T07:21:50;7.95;;;3.55;;
27985;SDS011;15453;53.692;10.168;2023-03-14T07:24:15;8.40;;;3.63;;
27985;SDS011;15453;53.692;10.168;2023-03-14T07:26:41;8.38;;;4.25;;
27985;SDS011;15453;53.692;10.168;2023-03-14T07:29:06;10.38;;;3.42;;
27985;SDS011;15453;53.692;10.168;2023-03-14T07:31:31;9.63;;;2.75;;
27985;SDS011;15453;53.692;10.168;2023-03-14T07:33:57;7.40;;;2.70;;
27985;SDS011;15453;53.692;10.168;2023-03-14T07:36:22;7.68;;;3.28;;
27985;SDS011;15453;53.692;10.168;2023-03-14T07:38:47;6.47;;;2.20;;
27985;SDS011;15453;53.692;10.168;2023-03-14T07:41:12;9.73;;;3.00;;
27985;SDS011;15453;53.692;10.168;2023-03-14T07:43:38;8.82;;;2.72;;
27985;SDS011;15453;53.692;10.168;2023-03-14T07:46:04;13.60;;;2.90;;
27985;SDS011;15453;53.692;10.168;2023-03-14T07:48:29;8.18;;;2.70;;
27985;SDS011;15453;53.692;10.168;2023-03-14T07:50:55;6.93;;;1.95;;
27985;SDS011;15453;53.692;10.168;2023-03-14T07:53:21;9.88;;;2.42;;
27985;SDS011;15453;53.692;10.168;2023-03-14T07:55:47;8.35;;;2.20;;
27985;SDS011;15453;53.692;10.168;2023-03-14T07:58:12;8.27;;;2.50;;
27985;SDS011;15453;53.692;10.168;2023-03-14T08:00:38;5.55;;;2.50;;
27985;SDS011;15453;53.692;10.168;2023-03-14T08:03:04;8.95;;;2.90;;
27985;SDS011;15453;53.692;10.168;2023-03-14T08:05:29;7.00;;;2.25;;
27985;SDS011;15453;53.692;10.168;2023-03-14T08:07:54;8.38;;;2.90;;
27985;SDS011;15453;53.692;10.168;2023-03-14T08:10:19;8.77;;;2.90;;
27985;SDS011;15453;53.692;10.168;2023-03-14T08:12:51;8.45;;;2.63;;
27985;SDS011;15453;53.692;10.168;2023-03-14T08:15:19;8.73;;;2.65;;
27985;SDS011;15453;53.692;10.168;2023-03-14T08:17:44;8.48;;;3.03;;
27985;SDS011;15453;53.692;10.168;2023-03-14T08:20:10;8.73;;;3.05;;
27985;SDS011;15453;53.692;10.168;2023-03-14T08:22:36;10.15;;;3.55;;
27985;SDS011;15453;53.692;10.168;2023-03-14T08:25:02;7.63;;;2.58;;
27985;SDS011;15453;53.692;10.168;2023-03-14T08:27:28;7.10;;;2.97;;
27985;SDS011;15453;53.692;10.168;2023-03-14T08:29:53;6.70;;;2.25;;
27985;SDS011;15453;53.692;10.168;2023-03-14T08:32:18;8.20;;;2.45;;
27985;SDS011;15453;53.692;10.168;2023-03-14T08:34:45;6.63;;;2.50;;
27985;SDS011;15453;53.692;10.168;2023-03-14T08:37:10;3.90;;;1.70;;
27985;SDS011;15453;53.692;10.168;2023-03-14T08:39:35;7.45;;;2.42;;
27985;SDS011;15453;53.692;10.168;2023-03-14T08:42:01;5.25;;;2.42;;
27985;SDS011;15453;53.692;10.168;2023-03-14T08:44:26;7.03;;;2.70;;
27985;SDS011;15453;53.692;10.168;2023-03-14T08:46:51;5.35;;;2.10;;
27985;SDS011;15453;53.692;10.168;2023-03-14T08:49:16;8.00;;;2.38;;
27985;SDS011;15453;53.692;10.168;2023-03-14T08:51:41;5.68;;;2.50;;
27985;SDS011;15453;53.692;10.168;2023-03-14T08:54:09;6.55;;;2.60;;
27985;SDS011;15453;53.692;10.168;2023-03-14T08:56:35;7.10;;;2.40;;
27985;SDS011;15453;53.692;10.168;2023-03-14T08:59:02;6.97;;;2.80;;
27985;SDS011;15453;53.692;10.168;2023-03-14T09:01:28;8.65;;;2.33;;
27985;SDS011;15453;53.692;10.168;2023-03-14T09:03:53;6.80;;;2.05;;
27985;SDS011;15453;53.692;10.168;2023-03-14T09:06:18;7.28;;;1.98;;
27985;SDS011;15453;53.692;10.168;2023-03-14T09:08:44;5.38;;;1.70;;
27985;SDS011;15453;53.692;10.168;2023-03-14T09:11:09;8.38;;;2.38;;
27985;SDS011;15453;53.692;10.168;2023-03-14T09:13:35;9.63;;;1.80;;
27985;SDS011;15453;53.692;10.168;2023-03-14T09:16:01;9.50;;;2.35;;
27985;SDS011;15453;53.692;10.168;2023-03-14T09:18:26;7.80;;;2.58;;
27985;SDS011;15453;53.692;10.168;2023-03-14T09:20:51;5.88;;;2.30;;
27985;SDS011;15453;53.692;10.168;2023-03-14T09:23:16;8.13;;;2.80;;
27985;SDS011;15453;53.692;10.168;2023-03-14T09:25:42;7.05;;;2.25;;
27985;SDS011;15453;53.692;10.168;2023-03-14T09:28:07;5.00;;;2.38;;
27985;SDS011;15453;53.692;10.168;2023-03-14T09:30:33;8.25;;;2.47;;
27985;SDS011;15453;53.692;10.168;2023-03-14T09:32:58;5.68;;;2.25;;
27985;SDS011;15453;53.692;10.168;2023-03-14T09:35:24;9.85;;;2.90;;
27985;SDS011;15453;53.692;10.168;2023-03-14T09:37:49;5.45;;;2.30;;
27985;SDS011;15453;53.692;10.168;2023-03-14T09:40:15;10.95;;;4.30;;
27985;SDS011;15453;53.692;10.168;2023-03-14T09:42:41;8.52;;;3.13;;
27985;SDS011;15453;53.692;10.168;2023-03-14T09:45:11;8.45;;;3.40;;
27985;SDS011;15453;53.692;10.168;2023-03-14T09:47:42;9.32;;;3.85;;
27985;SDS011;15453;53.692;10.168;2023-03-14T09:50:12;9.27;;;3.25;;
27985;SDS011;15453;53.692;10.168;2023-03-14T09:52:39;7.80;;;2.92;;
27985;SDS011;15453;53.692;10.168;2023-03-14T09:55:11;11.07;;;2.53;;
27985;SDS011;15453;53.692;10.168;2023-03-14T09:57:40;13.00;;;3.40;;
27985;SDS011;15453;53.692;10.168;2023-03-14T10:00:10;6.82;;;2.60;;
27985;SDS011;15453;53.692;10.168;2023-03-14T10:02:42;2.10;;;0.90;;
27985;SDS011;15453;53.692;10.168;2023-03-14T10:05:15;1.92;;;0.63;;
27985;SDS011;15453;53.692;10.168;2023-03-14T10:07:45;1.65;;;0.60;;
27985;SDS011;15453;53.692;10.168;2023-03-14T10:10:13;2.08;;;0.70;;
27985;SDS011;15453;53.692;10.168;2023-03-14T10:12:44;1.80;;;0.60;;
27985;SDS011;15453;53.692;10.168;2023-03-14T10:15:13;3.53;;;0.88;;
27985;SDS011;15453;53.692;10.168;2023-03-14T10:17:51;2.28;;;0.80;;
27985;SDS011;15453;53.692;10.168;2023-03-14T10:22:58;2.58;;;0.68;;
27985;SDS011;15453;53.692;10.168;2023-03-14T10:25:26;2.65;;;0.75;;
27985;SDS011;15453;53.692;10.168;2023-03-14T10:27:53;2.58;;;0.85;;
27985;SDS011;15453;53.692;10.168;2023-03-14T10:33:07;2.40;;;0.80;;
27985;SDS011;15453;53.692;10.168;2023-03-14T10:35:34;2.78;;;0.50;;
27985;SDS011;15453;53.692;10.168;2023-03-14T10:38:00;2.15;;;0.68;;
27985;SDS011;15453;53.692;10.168;2023-03-14T10:40:31;2.15;;;0.70;;
27985;SDS011;15453;53.692;10.168;2023-03-14T10:42:58;1.10;;;0.50;;
27985;SDS011;15453;53.692;10.168;2023-03-14T10:45:59;1.00;;;0.40;;
27985;SDS011;15453;53.692;10.168;2023-03-14T10:53:42;2.78;;;0.73;;
27985;SDS011;15453;53.692;10.168;2023-03-14T10:56:11;2.50;;;0.80;;
27985;SDS011;15453;53.692;10.168;2023-03-14T10:58:40;2.20;;;0.60;;
27985;SDS011;15453;53.692;10.168;2023-03-14T11:03:51;1.65;;;0.60;;
27985;SDS011;15453;53.692;10.168;2023-03-14T11:09:12;2.35;;;0.60;;
27985;SDS011;15453;53.692;10.168;2023-03-14T11:11:48;3.15;;;0.70;;
27985;SDS011;15453;53.692;10.168;2023-03-14T11:14:16;3.42;;;0.70;;
27985;SDS011;15453;53.692;10.168;2023-03-14T11:17:34;3.53;;;0.80;;
27985;SDS011;15453;53.692;10.168;2023-03-14T11:20:01;2.50;;;0.77;;
27985;SDS011;15453;53.692;10.168;2023-03-14T11:22:39;4.53;;;0.80;;
27985;SDS011;15453;53.692;10.168;2023-03-14T11:28:29;2.53;;;0.70;;
27985;SDS011;15453;53.692;10.168;2023-03-14T11:30:49;2.47;;;0.80;;
27985;SDS011;15453;53.692;10.168;2023-03-14T11:33:21;3.35;;;0.93;;
27985;SDS011;15453;53.692;10.168;2023-03-14T11:35:53;5.38;;;0.95;;
27985;SDS011;15453;53.692;10.168;2023-03-14T11:41:14;3.25;;;0.70;;
27985;SDS011;15453;53.692;10.168;2023-03-14T11:49:38;3.45;;;1.50;;
27985;SDS011;15453;53.692;10.168;2023-03-14T11:52:50;3.38;;;0.93;;
27985;SDS011;15453;53.692;10.168;2023-03-14T11:57:21;3.92;;;1.20;;
27985;SDS011;15453;53.692;10.168;2023-03-14T12:02:51;4.20;;;0.98;;
27985;SDS011;15453;53.692;10.168;2023-03-14T12:10:51;8.40;;;2.05;;
27985;SDS011;15453;53.692;10.168;2023-03-14T12:13:24;5.70;;;0.95;;
27985;SDS011;15453;53.692;10.168;2023-03-14T12:15:54;5.63;;;1.23;;
27985;SDS011;15453;53.692;10.168;2023-03-14T12:18:27;9.82;;;1.70;;
27985;SDS011;15453;53.692;10.168;2023-03-14T12:21:00;5.13;;;1.15;;
27985;SDS011;15453;53.692;10.168;2023-03-14T12:23:27;7.03;;;1.33;;
27985;SDS011;15453;53.692;10.168;2023-03-14T12:26:06;5.63;;;1.20;;
27985;SDS011;15453;53.692;10.168;2023-03-14T12:28:33;14.85;;;1.50;;
27985;SDS011;15453;53.692;10.168;2023-03-14T12:31:20;11.20;;;1.60;;
27985;SDS011;15453;53.692;10.168;2023-03-14T12:39:19;10.32;;;1.67;;
27985;SDS011;15453;53.692;10.168;2023-03-14T12:42:07;13.63;;;1.70;;
27985;SDS011;15453;53.692;10.168;2023-03-14T12:44:39;12.40;;;1.90;;
27985;SDS011;15453;53.692;10.168;2023-03-14T12:49:46;11.55;;;1.92;;
27985;SDS011;15453;53.692;10.168;2023-03-14T12:52:22;10.65;;;1.80;;
27985;SDS011;15453;53.692;10.168;2023-03-14T12:55:02;9.45;;;1.77;;
27985;SDS011;15453;53.692;10.168;2023-03-14T12:57:51;8.05;;;1.95;;
27985;SDS011;15453;53.692;10.168;2023-03-14T13:00:34;10.88;;;1.98;;
27985;SDS011;15453;53.692;10.168;2023-03-14T13:03:02;11.40;;;2.20;;
27985;SDS011;15453;53.692;10.168;2023-03-14T13:05:52;8.90;;;1.95;;
27985;SDS011;15453;53.692;10.168;2023-03-14T13:08:36;12.35;;;1.63;;
27985;SDS011;15453;53.692;10.168;2023-03-14T13:11:05;10.68;;;1.85;;
27985;SDS011;15453;53.692;10.168;2023-03-14T13:13:34;7.13;;;1.98;;
27985;SDS011;15453;53.692;10.168;2023-03-14T13:16:01;9.60;;;2.38;;
27985;SDS011;15453;53.692;10.168;2023-03-14T13:18:36;15.60;;;2.30;;
27985;SDS011;15453;53.692;10.168;2023-03-14T13:21:22;12.00;;;2.30;;
27985;SDS011;15453;53.692;10.168;2023-03-14T13:24:33;15.23;;;2.72;;
27985;SDS011;15453;53.692;10.168;2023-03-14T13:26:49;13.23;;;2.30;;
27985;SDS011;15453;53.692;10.168;2023-03-14T13:29:22;15.13;;;2.97;;
27985;SDS011;15453;53.692;10.168;2023-03-14T13:31:50;17.45;;;2.70;;
27985;SDS011;15453;53.692;10.168;2023-03-14T13:34:17;13.00;;;2.28;;
27985;SDS011;15453;53.692;10.168;2023-03-14T13:36:43;14.45;;;2.67;;
27985;SDS011;15453;53.692;10.168;2023-03-14T13:39:18;18.75;;;2.35;;
27985;SDS011;15453;53.692;10.168;2023-03-14T13:41:47;14.07;;;2.60;;
27985;SDS011;15453;53.692;10.168;2023-03-14T13:44:14;21.50;;;2.88;;
27985;SDS011;15453;53.692;10.168;2023-03-14T13:46:41;13.50;;;2.72;;
27985;SDS011;15453;53.692;10.168;2023-03-14T13:49:09;15.88;;;2.83;;
27985;SDS011;15453;53.692;10.168;2023-03-14T13:51:38;13.23;;;1.90;;
27985;SDS011;15453;53.692;10.168;2023-03-14T13:54:11;11.43;;;2.40;;
27985;SDS011;15453;53.692;10.168;2023-03-14T13:56:39;8.07;;;1.55;;
27985;SDS011;15453;53.692;10.168;2023-03-14T13:59:20;8.18;;;1.80;;
27985;SDS011;15453;53.692;10.168;2023-03-14T14:01:46;10.02;;;2.03;;
27985;SDS011;15453;53.692;10.168;2023-03-14T14:04:16;8.23;;;1.65;;
27985;SDS011;15453;53.692;10.168;2023-03-14T14:06:50;7.43;;;1.70;;
27985;SDS011;15453;53.692;10.168;2023-03-14T14:11:55;8.77;;;2.17;;
27985;SDS011;15453;53.692;10.168;2023-03-14T14:16:50;10.15;;;2.33;;
27985;SDS011;15453;53.692;10.168;2023-03-14T14:19:16;10.82;;;1.80;;
27985;SDS011;15453;53.692;10.168;2023-03-14T14:21:44;13.88;;;2.20;;
27985;SDS011;15453;53.692;10.168;2023-03-14T14:24:13;10.70;;;1.70;;
27985;SDS011;15453;53.692;10.168;2023-03-14T14:27:01;12.57;;;2.30;;
27985;SDS011;15453;53.692;10.168;2023-03-14T14:29:38;10.50;;;1.70;;
27985;SDS011;15453;53.692;10.168;2023-03-14T14:34:38;9.80;;;2.45;;
27985;SDS011;15453;53.692;10.168;2023-03-14T14:39:47;11.25;;;2.15;;
27985;SDS011;15453;53.692;10.168;2023-03-14T14:42:14;10.10;;;2.53;;
27985;SDS011;15453;53.692;10.168;2023-03-14T14:44:42;6.75;;;1.70;;
27985;SDS011;15453;53.692;10.168;2023-03-14T14:47:12;10.02;;;1.88;;
27985;SDS011;15453;53.692;10.168;2023-03-14T14:49:38;6.93;;;2.33;;
27985;SDS011;15453;53.692;10.168;2023-03-14T14:52:14;10.43;;;1.83;;
27985;SDS011;15453;53.692;10.168;2023-03-14T14:55:10;13.57;;;2.05;;
27985;SDS011;15453;53.692;10.168;2023-03-14T14:57:52;9.73;;;1.48;;
27985;SDS011;15453;53.692;10.168;2023-03-14T15:00:22;9.25;;;1.95;;
27985;SDS011;15453;53.692;10.168;2023-03-14T15:02:50;9.50;;;1.67;;
27985;SDS011;15453;53.692;10.168;2023-03-14T15:05:20;8.40;;;1.63;;
27985;SDS011;15453;53.692;10.168;2023-03-14T15:07:48;5.03;;;1.65;;
27985;SDS011;15453;53.692;10.168;2023-03-14T15:10:15;6.93;;;1.50;;
27985;SDS011;15453;53.692;10.168;2023-03-14T15:12:42;10.93;;;2.10;;
27985;SDS011;15453;53.692;10.168;2023-03-14T15:15:08;8.23;;;1.90;;
27985;SDS011;15453;53.692;10.168;2023-03-14T15:17:34;10.27;;;1.85;;
27985;SDS011;15453;53.692;10.168;2023-03-14T15:20:00;7.28;;;1.55;;
27985;SDS011;15453;53.692;10.168;2023-03-14T15:22:26;8.50;;;1.77;;
27985;SDS011;15453;53.692;10.168;2023-03-14T15:24:51;12.10;;;2.30;;
27985;SDS011;15453;53.692;10.168;2023-03-14T15:27:17;7.70;;;1.42;;
27985;SDS011;15453;53.692;10.168;2023-03-14T15:29:43;11.02;;;2.17;;
27985;SDS011;15453;53.692;10.168;2023-03-14T15:32:12;6.03;;;1.45;;
27985;SDS011;15453;53.692;10.168;2023-03-14T15:34:39;8.18;;;1.77;;
27985;SDS011;15453;53.692;10.168;2023-03-14T15:37:08;14.48;;;2.40;;
27985;SDS011;15453;53.692;10.168;2023-03-14T15:39:36;11.00;;;1.73;;
27985;SDS011;15453;53.692;10.168;2023-03-14T15:42:01;13.80;;;2.92;;
27985;SDS011;15453;53.692;10.168;2023-03-14T15:44:26;12.80;;;2.38;;